Time;durP1;ratioP1;P1;durP2;ratioP2;P2;SDS_P1;SDS_P2;PMS_P1;PMS_P2;Temp;Humidity;BMP_temperature;BMP_pressure;BME280_temperature;BME280_humidity;BME280_pressure;Samples;Min_cycle;Max_cycle;Signal;HPM_P1;HPM_P2
2023/09/15 00:00:40;;;;;;;5.85;3.42;;;14.00;68.20;;;;;;4954382;28;20374;-73
2023/09/15 00:03:06;;;;;;;6.75;4.05;;;14.00;68.10;;;;;;4937204;28;20494;-73
2023/09/15 00:05:33;;;;;;;7.95;3.85;;;14.00;68.10;;;;;;4953220;28;20482;-73
2023/09/15 00:08:04;;;;;;;5.38;3.30;;;14.00;68.10;;;;;;4952499;28;20090;-73
2023/09/15 00:10:34;;;;;;;6.40;3.67;;;13.90;68.10;;;;;;4953573;28;20038;-73
2023/09/15 00:13:00;;;;;;;6.53;3.53;;;13.90;68.20;;;;;;4937747;28;20123;-73
2023/09/15 00:15:26;;;;;;;6.22;3.33;;;13.90;68.20;;;;;;4951301;28;20057;-73
2023/09/15 00:17:54;;;;;;;5.72;2.60;;;13.90;68.20;;;;;;4951071;28;20474;-73
2023/09/15 00:20:21;;;;;;;6.43;4.20;;;13.90;68.40;;;;;;4937992;28;20039;-73
2023/09/15 00:22:49;;;;;;;8.18;3.47;;;13.90;68.40;;;;;;4953778;28;20058;-73
2023/09/15 00:25:25;;;;;;;6.43;3.08;;;13.90;68.40;;;;;;4952311;28;20034;-73
2023/09/15 00:27:54;;;;;;;5.50;2.70;;;13.80;68.40;;;;;;4934427;28;21316;-73
2023/09/15 00:30:24;;;;;;;7.03;3.35;;;13.90;68.60;;;;;;4953007;28;20038;-73
2023/09/15 00:32:51;;;;;;;7.78;3.33;;;13.80;68.50;;;;;;4936647;28;20047;-73
2023/09/15 00:35:20;;;;;;;5.88;3.13;;;13.90;68.40;;;;;;4942812;29;20050;-73
2023/09/15 00:37:46;;;;;;;4.88;3.22;;;13.80;68.40;;;;;;4940012;28;20059;-73
2023/09/15 00:40:13;;;;;;;8.05;4.43;;;13.90;68.70;;;;;;4940111;29;20047;-73
2023/09/15 00:42:42;;;;;;;8.40;4.50;;;13.80;68.20;;;;;;4940575;29;20382;-73
2023/09/15 00:45:09;;;;;;;4.93;3.30;;;13.80;68.10;;;;;;4922155;29;20048;-72
2023/09/15 00:47:36;;;;;;;4.45;2.60;;;13.80;68.20;;;;;;4934127;29;20057;-72
2023/09/15 00:50:05;;;;;;;4.90;2.88;;;13.80;68.40;;;;;;4940407;29;20113;-72
2023/09/15 00:52:33;;;;;;;3.45;2.03;;;13.70;68.50;;;;;;4940222;29;20043;-72
2023/09/15 00:55:00;;;;;;;5.40;2.83;;;13.80;68.60;;;;;;4940129;29;20486;-73
2023/09/15 00:57:27;;;;;;;4.40;2.13;;;13.80;68.70;;;;;;4939943;29;20049;-73
2023/09/15 00:59:53;;;;;;;5.88;2.58;;;13.80;68.70;;;;;;4939932;29;20039;-73
2023/09/15 01:02:19;;;;;;;5.57;2.50;;;13.80;68.80;;;;;;4939802;29;20050;-73
2023/09/15 01:04:45;;;;;;;5.35;2.63;;;13.80;68.80;;;;;;4939942;29;20047;-73
2023/09/15 01:07:12;;;;;;;4.65;2.85;;;13.80;68.80;;;;;;4940259;29;20039;-73
2023/09/15 01:09:39;;;;;;;7.03;3.05;;;13.80;68.80;;;;;;4939771;29;20047;-73
2023/09/15 01:12:07;;;;;;;3.60;2.47;;;13.90;68.80;;;;;;4939671;29;20039;-73
2023/09/15 01:14:34;;;;;;;6.00;2.28;;;13.90;68.70;;;;;;4923605;29;20486;-73
2023/09/15 01:17:17;;;;;;;6.82;2.88;;;13.90;68.60;;;;;;4939720;29;20039;-73
2023/09/15 01:19:55;;;;;;;5.07;2.67;;;13.90;68.40;;;;;;4939332;29;20043;-73
2023/09/15 01:22:24;;;;;;;3.78;2.45;;;13.90;68.30;;;;;;4940039;29;20074;-73
2023/09/15 01:25:21;;;;;;;3.83;2.25;;;13.90;68.30;;;;;;4939960;29;20360;-73
2023/09/15 01:28:14;;;;;;;6.88;3.00;;;14.00;68.10;;;;;;4939704;29;20043;-73
2023/09/15 01:30:41;;;;;;;6.57;2.60;;;14.00;67.80;;;;;;4938900;29;20380;-72
2023/09/15 01:33:09;;;;;;;3.92;1.92;;;14.00;67.80;;;;;;4939658;29;20387;-73
2023/09/15 01:35:35;;;;;;;4.05;2.17;;;14.00;67.70;;;;;;4939254;29;20098;-73
2023/09/15 01:38:00;;;;;;;5.85;2.25;;;14.00;67.60;;;;;;4923080;28;20051;-73
2023/09/15 01:40:26;;;;;;;3.88;2.30;;;14.00;67.90;;;;;;4939067;29;20043;-73
2023/09/15 01:42:54;;;;;;;7.53;2.30;;;14.00;67.40;;;;;;4939290;29;20039;-73
2023/09/15 01:45:20;;;;;;;5.20;2.03;;;14.10;67.30;;;;;;4938933;29;20066;-73
2023/09/15 01:47:47;;;;;;;4.40;2.28;;;14.10;67.20;;;;;;4939266;29;20479;-73
2023/09/15 01:50:14;;;;;;;3.75;2.33;;;14.10;67.10;;;;;;4939344;29;20394;-73
2023/09/15 01:52:42;;;;;;;5.90;2.30;;;14.10;67.00;;;;;;4938776;29;20046;-73
2023/09/15 01:55:08;;;;;;;4.13;2.38;;;14.10;66.90;;;;;;4954226;29;20043;-73
2023/09/15 01:57:34;;;;;;;4.30;2.30;;;14.10;66.90;;;;;;4907708;29;20043;-73
2023/09/15 02:00:00;;;;;;;4.82;2.53;;;14.10;66.80;;;;;;4937965;29;20051;-73
2023/09/15 02:02:26;;;;;;;3.30;2.30;;;14.10;66.80;;;;;;4922656;29;20046;-73
2023/09/15 02:04:52;;;;;;;4.72;2.85;;;14.10;66.80;;;;;;4938840;29;20158;-73
2023/09/15 02:07:17;;;;;;;8.30;3.58;;;14.10;66.70;;;;;;4939228;29;20134;-73
2023/09/15 02:09:43;;;;;;;3.85;2.20;;;14.10;66.60;;;;;;4955044;28;20594;-73
2023/09/15 02:12:09;;;;;;;4.30;3.05;;;14.10;66.60;;;;;;4938697;29;20142;-73
2023/09/15 02:14:37;;;;;;;6.88;2.63;;;14.10;66.60;;;;;;4922710;29;20070;-73
2023/09/15 02:17:04;;;;;;;5.45;2.55;;;14.10;66.50;;;;;;4938736;29;20042;-73
2023/09/15 02:19:30;;;;;;;4.07;2.30;;;14.10;66.40;;;;;;4938216;29;20035;-73
2023/09/15 02:21:57;;;;;;;5.05;2.70;;;14.10;66.40;;;;;;4938581;29;20043;-73
2023/09/15 02:24:23;;;;;;;5.13;2.50;;;14.10;66.60;;;;;;4922868;29;20383;-73
2023/09/15 02:26:49;;;;;;;7.53;3.22;;;14.10;66.10;;;;;;4938778;28;20043;-73
2023/09/15 02:29:14;;;;;;;4.63;2.63;;;14.10;66.00;;;;;;4938571;29;20487;-73
2023/09/15 02:31:41;;;;;;;6.85;2.63;;;14.10;65.80;;;;;;4922707;29;20050;-73
2023/09/15 02:34:07;;;;;;;4.20;2.38;;;14.10;65.80;;;;;;4937821;29;20093;-73
2023/09/15 02:36:32;;;;;;;4.05;2.40;;;14.10;65.80;;;;;;4938087;29;20487;-73
2023/09/15 02:38:58;;;;;;;3.92;2.35;;;14.00;65.70;;;;;;4954111;28;20058;-73
2023/09/15 02:41:24;;;;;;;3.33;2.45;;;14.00;65.70;;;;;;4957534;28;20046;-73
2023/09/15 02:43:49;;;;;;;5.10;2.60;;;14.00;65.60;;;;;;4957536;28;20046;-73
2023/09/15 02:46:15;;;;;;;5.60;2.55;;;14.00;65.60;;;;;;4957311;28;20105;-73
2023/09/15 02:48:44;;;;;;;3.75;2.88;;;14.00;65.60;;;;;;4957218;28;20042;-73
2023/09/15 02:51:09;;;;;;;4.07;2.42;;;14.00;65.60;;;;;;4957071;28;20058;-73
2023/09/15 02:53:35;;;;;;;4.13;2.40;;;14.00;65.50;;;;;;4956847;28;20035;-73
2023/09/15 02:56:04;;;;;;;3.92;2.13;;;14.00;65.50;;;;;;4925648;28;20051;-73
2023/09/15 02:58:31;;;;;;;6.55;2.63;;;13.90;65.50;;;;;;4957481;28;20038;-73
2023/09/15 03:00:57;;;;;;;4.78;2.72;;;13.90;65.50;;;;;;4956995;28;20049;-73
2023/09/15 03:03:24;;;;;;;3.30;2.30;;;13.90;65.60;;;;;;4957137;28;20035;-73
2023/09/15 03:05:50;;;;;;;4.40;2.60;;;13.90;65.70;;;;;;4957206;28;20108;-73
2023/09/15 03:08:16;;;;;;;5.75;3.45;;;13.90;65.80;;;;;;4956992;28;20039;-73
2023/09/15 03:10:42;;;;;;;7.43;3.78;;;13.90;65.90;;;;;;4940619;28;20218;-73
2023/09/15 03:13:08;;;;;;;6.32;3.50;;;13.90;65.90;;;;;;4956697;28;20126;-73
2023/09/15 03:15:34;;;;;;;4.50;2.50;;;13.80;65.80;;;;;;4925497;28;20030;-73
2023/09/15 03:18:00;;;;;;;5.05;2.55;;;13.80;66.10;;;;;;4941170;28;20042;-73
2023/09/15 03:20:26;;;;;;;4.07;2.35;;;13.80;66.40;;;;;;4941029;28;20043;-73
2023/09/15 03:22:51;;;;;;;5.28;2.78;;;13.80;66.50;;;;;;4956684;28;20034;-73
2023/09/15 03:25:17;;;;;;;5.18;2.80;;;13.70;66.50;;;;;;4956685;28;20085;-73
2023/09/15 03:27:43;;;;;;;5.78;2.67;;;13.70;66.50;;;;;;4972802;28;20045;-73
2023/09/15 03:30:10;;;;;;;3.58;2.10;;;13.70;66.40;;;;;;4956830;28;20045;-73
2023/09/15 03:32:37;;;;;;;4.65;2.47;;;13.70;66.30;;;;;;4957266;28;20470;-73
2023/09/15 03:35:05;;;;;;;6.00;3.05;;;13.70;66.10;;;;;;4956268;28;20047;-73
2023/09/15 03:37:32;;;;;;;3.22;2.22;;;13.70;66.00;;;;;;4956682;28;20047;-73
2023/09/15 03:39:59;;;;;;;4.93;2.30;;;13.70;65.90;;;;;;4925361;28;20368;-73
2023/09/15 03:42:24;;;;;;;4.97;2.60;;;13.70;65.80;;;;;;4940421;28;20106;-73
2023/09/15 03:44:50;;;;;;;3.33;2.40;;;13.60;65.70;;;;;;4956262;28;20134;-73
2023/09/15 03:47:16;;;;;;;5.35;2.50;;;13.60;65.70;;;;;;4956640;28;20074;-73
2023/09/15 03:49:41;;;;;;;5.90;2.53;;;13.60;65.70;;;;;;4940618;28;20085;-73
2023/09/15 03:52:08;;;;;;;4.25;2.45;;;13.60;66.20;;;;;;4956495;28;20043;-73
2023/09/15 03:54:34;;;;;;;4.50;1.90;;;13.60;65.80;;;;;;4940223;28;20096;-73
2023/09/15 03:56:59;;;;;;;4.32;2.45;;;13.60;65.80;;;;;;4956547;28;20118;-73
2023/09/15 03:59:25;;;;;;;3.35;1.65;;;13.60;65.90;;;;;;4956311;28;20137;-73
2023/09/15 04:01:50;;;;;;;4.00;2.30;;;13.60;65.80;;;;;;4956666;28;20034;-73
2023/09/15 04:04:16;;;;;;;4.80;2.15;;;13.60;66.30;;;;;;4955987;28;20185;-73
2023/09/15 04:06:42;;;;;;;4.00;2.17;;;13.60;65.90;;;;;;4956821;28;20475;-73
2023/09/15 04:09:12;;;;;;;4.05;2.13;;;13.60;65.90;;;;;;4956677;28;20486;-73
2023/09/15 04:11:38;;;;;;;3.33;1.90;;;13.50;65.90;;;;;;4956463;28;20129;-73
2023/09/15 04:14:04;;;;;;;3.50;2.10;;;13.50;65.90;;;;;;4956222;28;20121;-73
2023/09/15 04:16:30;;;;;;;4.50;2.53;;;13.50;65.90;;;;;;4956383;28;20038;-73
2023/09/15 04:18:56;;;;;;;5.43;2.30;;;13.50;66.00;;;;;;4940399;28;20043;-73
2023/09/15 04:21:22;;;;;;;3.03;2.03;;;13.50;66.00;;;;;;4956395;28;20047;-73
2023/09/15 04:23:48;;;;;;;4.95;2.40;;;13.50;66.00;;;;;;4942487;28;20053;-73
2023/09/15 04:26:14;;;;;;;6.72;3.13;;;13.50;66.00;;;;;;4959977;28;20130;-73
2023/09/15 04:28:39;;;;;;;5.82;2.70;;;13.50;66.00;;;;;;4960042;28;20154;-73
2023/09/15 04:31:05;;;;;;;3.25;2.05;;;13.50;66.10;;;;;;4959590;28;20458;-73
2023/09/15 04:33:31;;;;;;;4.03;2.25;;;13.50;66.10;;;;;;4959193;28;20038;-73
2023/09/15 04:35:56;;;;;;;4.15;2.70;;;13.50;66.10;;;;;;4959778;28;20046;-73
2023/09/15 04:38:22;;;;;;;3.80;2.50;;;13.50;66.10;;;;;;4948779;29;20055;-73
2023/09/15 04:40:48;;;;;;;3.45;2.33;;;13.40;66.10;;;;;;4940335;29;20115;-72
2023/09/15 04:43:17;;;;;;;3.42;2.50;;;13.50;66.20;;;;;;4940306;29;20051;-73
2023/09/15 04:45:43;;;;;;;3.72;2.38;;;13.40;66.20;;;;;;4924718;29;20126;-73
2023/09/15 04:48:09;;;;;;;4.32;2.30;;;13.40;66.20;;;;;;4940213;29;20131;-73
2023/09/15 04:50:38;;;;;;;4.15;2.60;;;13.40;66.30;;;;;;4939892;29;20043;-70
2023/09/15 04:53:06;;;;;;;6.65;2.88;;;13.40;66.30;;;;;;4940077;29;20039;-73
2023/09/15 04:55:35;;;;;;;4.82;2.70;;;13.40;66.30;;;;;;4939846;29;20039;-73
2023/09/15 04:58:01;;;;;;;4.22;2.70;;;13.40;66.30;;;;;;4939361;28;20042;-73
2023/09/15 05:00:29;;;;;;;4.63;2.72;;;13.40;66.50;;;;;;4939840;28;20038;-72
2023/09/15 05:02:56;;;;;;;5.10;3.20;;;13.30;66.40;;;;;;4939661;29;20043;-72
2023/09/15 05:05:22;;;;;;;4.03;2.38;;;13.40;66.60;;;;;;4939462;29;20046;-72
2023/09/15 05:07:47;;;;;;;3.83;2.47;;;13.30;66.70;;;;;;4939657;29;20039;-74
2023/09/15 05:10:13;;;;;;;4.00;2.63;;;13.30;66.80;;;;;;4923966;28;20419;-73
2023/09/15 05:12:39;;;;;;;6.35;2.60;;;13.30;67.30;;;;;;4939881;29;20031;-73
2023/09/15 05:15:06;;;;;;;4.00;2.22;;;13.30;66.90;;;;;;4939245;29;20143;-73
2023/09/15 05:17:32;;;;;;;3.85;2.08;;;13.30;67.00;;;;;;4939720;28;20122;-73
2023/09/15 05:19:58;;;;;;;5.10;2.50;;;13.30;67.00;;;;;;4939980;29;20167;-73
2023/09/15 05:22:24;;;;;;;6.38;2.72;;;13.20;67.00;;;;;;4939665;29;20418;-73
2023/09/15 05:24:49;;;;;;;4.55;2.78;;;13.30;67.20;;;;;;4939400;29;20039;-74
2023/09/15 05:27:15;;;;;;;3.38;2.25;;;13.20;67.20;;;;;;4939661;29;20057;-73
2023/09/15 05:29:41;;;;;;;6.88;2.15;;;13.20;67.20;;;;;;4939656;29;20075;-73
2023/09/15 05:32:06;;;;;;;4.30;2.30;;;13.20;67.20;;;;;;4939308;29;20410;-74
2023/09/15 05:34:32;;;;;;;4.85;2.55;;;13.20;67.20;;;;;;4939528;29;20050;-73
2023/09/15 05:36:58;;;;;;;7.47;3.90;;;13.20;67.30;;;;;;4939245;28;20074;-73
2023/09/15 05:39:23;;;;;;;4.85;2.10;;;13.20;67.30;;;;;;4942441;28;20142;-73
2023/09/15 05:41:49;;;;;;;5.22;3.38;;;13.20;67.30;;;;;;4958578;28;20054;-73
2023/09/15 05:44:18;;;;;;;6.35;4.65;;;13.20;67.40;;;;;;4958528;28;20090;-73
2023/09/15 05:46:44;;;;;;;5.28;2.92;;;13.20;67.50;;;;;;4958179;28;20043;-73
2023/09/15 05:49:09;;;;;;;6.20;4.28;;;13.20;67.60;;;;;;4958169;28;20049;-73
2023/09/15 05:51:35;;;;;;;8.70;3.53;;;13.20;67.60;;;;;;4942479;28;20039;-73
2023/09/15 05:54:00;;;;;;;7.78;4.82;;;13.20;67.70;;;;;;4957988;28;20049;-73
2023/09/15 05:56:29;;;;;;;6.80;3.58;;;13.20;67.80;;;;;;4926302;28;20046;-73
2023/09/15 05:58:55;;;;;;;5.50;3.50;;;13.20;68.00;;;;;;4958166;28;20125;-73
2023/09/15 06:01:21;;;;;;;5.93;3.88;;;13.20;68.10;;;;;;4958181;28;20186;-73
2023/09/15 06:03:48;;;;;;;9.27;3.90;;;13.20;68.30;;;;;;4958330;28;20034;-73
2023/09/15 06:06:18;;;;;;;6.47;4.07;;;13.20;68.60;;;;;;4957673;28;20051;-73
2023/09/15 06:08:44;;;;;;;10.32;5.57;;;13.20;69.10;;;;;;4958049;28;20051;-73
2023/09/15 06:11:09;;;;;;;7.90;4.38;;;13.20;69.30;;;;;;4958028;28;20054;-73
2023/09/15 06:13:36;;;;;;;8.05;4.95;;;13.20;69.40;;;;;;4957853;28;20043;-73
2023/09/15 06:16:04;;;;;;;9.25;5.85;;;13.30;69.50;;;;;;4957708;28;20046;-73
2023/09/15 06:18:33;;;;;;;7.45;4.85;;;13.30;69.50;;;;;;4942244;28;20081;-73
2023/09/15 06:20:59;;;;;;;7.80;4.20;;;13.40;69.50;;;;;;4958135;28;20363;-73
2023/09/15 06:23:25;;;;;;;8.80;4.03;;;13.50;69.50;;;;;;4957680;28;20094;-73
2023/09/15 06:25:53;;;;;;;4.22;3.13;;;13.50;69.20;;;;;;4957591;28;20043;-73
2023/09/15 06:28:19;;;;;;;5.55;3.60;;;13.60;69.10;;;;;;4957798;28;20130;-73
2023/09/15 06:30:45;;;;;;;8.07;3.67;;;13.60;69.10;;;;;;4957629;28;20460;-73
2023/09/15 06:33:11;;;;;;;5.95;3.55;;;13.60;69.10;;;;;;4957494;28;20042;-73
2023/09/15 06:35:37;;;;;;;5.90;3.70;;;13.70;69.20;;;;;;4957342;28;20038;-73
2023/09/15 06:38:04;;;;;;;6.30;3.80;;;13.70;69.20;;;;;;4941296;28;20402;-73
2023/09/15 06:40:29;;;;;;;5.55;3.88;;;13.80;69.10;;;;;;4957401;28;20098;-73
2023/09/15 06:42:55;;;;;;;7.28;4.30;;;13.80;69.10;;;;;;4941475;28;20441;-73
2023/09/15 06:45:21;;;;;;;6.63;4.07;;;13.80;69.20;;;;;;4940734;28;20027;-73
2023/09/15 06:47:46;;;;;;;10.82;4.60;;;13.80;69.20;;;;;;4957105;28;20440;-73
2023/09/15 06:50:12;;;;;;;7.78;4.15;;;13.90;69.50;;;;;;4957405;28;20047;-73
2023/09/15 06:52:38;;;;;;;7.57;5.18;;;13.80;69.50;;;;;;4957525;28;20047;-73
2023/09/15 06:55:04;;;;;;;6.28;4.32;;;13.80;69.60;;;;;;4956790;28;20387;-73
2023/09/15 06:57:29;;;;;;;6.72;4.57;;;13.80;69.50;;;;;;4964676;28;20031;-73
2023/09/15 06:59:55;;;;;;;7.60;3.88;;;13.80;69.60;;;;;;4941073;28;20047;-73
2023/09/15 07:02:21;;;;;;;8.80;4.28;;;13.80;69.90;;;;;;4941465;28;20046;-73
2023/09/15 07:04:46;;;;;;;9.57;4.60;;;13.80;70.00;;;;;;4941460;28;20061;-73
2023/09/15 07:07:12;;;;;;;7.88;4.35;;;13.70;70.30;;;;;;4957129;28;20402;-73
2023/09/15 07:09:38;;;;;;;8.82;5.18;;;13.70;70.50;;;;;;4940624;28;20078;-73
2023/09/15 07:12:04;;;;;;;8.93;4.70;;;13.70;70.80;;;;;;4956526;28;20046;-73
2023/09/15 07:14:30;;;;;;;5.85;4.32;;;13.70;71.10;;;;;;4956722;28;20054;-73
2023/09/15 07:16:55;;;;;;;8.77;5.18;;;13.70;71.30;;;;;;4956843;28;20038;-73
2023/09/15 07:19:21;;;;;;;9.77;4.50;;;13.80;71.50;;;;;;4941179;28;20397;-73
2023/09/15 07:21:47;;;;;;;8.68;4.93;;;13.80;72.00;;;;;;4956447;28;20042;-73
2023/09/15 07:24:13;;;;;;;12.52;5.15;;;13.70;71.70;;;;;;4956898;28;20050;-73
2023/09/15 07:26:39;;;;;;;9.57;4.65;;;13.70;72.00;;;;;;4956821;28;20074;-73
2023/09/15 07:29:05;;;;;;;11.80;4.68;;;13.80;72.30;;;;;;4956895;28;20077;-73
2023/09/15 07:31:34;;;;;;;7.97;5.05;;;13.80;72.40;;;;;;4956372;28;20038;-72
2023/09/15 07:34:00;;;;;;;9.85;4.97;;;13.80;72.50;;;;;;4956423;28;20085;-71
2023/09/15 07:36:26;;;;;;;8.55;4.80;;;13.80;72.60;;;;;;4958151;28;20070;-72
2023/09/15 07:38:52;;;;;;;14.30;5.40;;;13.80;72.70;;;;;;4978172;28;20054;-73
2023/09/15 07:41:19;;;;;;;18.00;5.75;;;13.90;72.80;;;;;;4967003;28;20053;-72
2023/09/15 07:43:45;;;;;;;10.13;5.43;;;13.90;73.00;;;;;;4968991;28;20394;-73
2023/09/15 07:46:13;;;;;;;7.32;4.65;;;14.00;73.10;;;;;;4959939;28;20046;-73
2023/09/15 07:48:42;;;;;;;6.72;4.57;;;14.00;73.20;;;;;;4959700;28;20403;-73
2023/09/15 07:51:08;;;;;;;7.78;4.32;;;14.10;73.30;;;;;;4968444;28;20194;-73
2023/09/15 07:53:34;;;;;;;7.70;5.10;;;14.10;73.20;;;;;;4940799;28;20507;-73
2023/09/15 07:55:59;;;;;;;9.32;4.65;;;14.20;73.30;;;;;;4956392;28;20097;-73
2023/09/15 07:58:25;;;;;;;6.13;3.97;;;14.30;73.50;;;;;;4974322;28;20049;-73
2023/09/15 08:00:51;;;;;;;8.10;4.10;;;14.40;73.50;;;;;;4949194;28;20177;-73
2023/09/15 08:03:16;;;;;;;6.80;4.10;;;14.50;73.60;;;;;;4970453;28;20402;-72
2023/09/15 08:05:42;;;;;;;7.95;3.90;;;14.60;73.80;;;;;;4960790;28;20078;-72
2023/09/15 08:08:08;;;;;;;7.10;4.35;;;14.80;73.90;;;;;;4944448;28;20046;-73
2023/09/15 08:10:34;;;;;;;7.05;3.63;;;14.90;73.70;;;;;;4962808;28;20114;-73
2023/09/15 08:12:59;;;;;;;7.93;3.20;;;15.10;73.20;;;;;;4957023;28;20039;-73
2023/09/15 08:15:25;;;;;;;5.22;3.28;;;15.30;72.90;;;;;;4976501;28;20082;-73
2023/09/15 08:17:52;;;;;;;8.52;3.30;;;15.40;72.30;;;;;;4968178;28;20037;-73
2023/09/15 08:20:18;;;;;;;7.55;3.20;;;15.60;72.30;;;;;;4961228;28;20047;-73
2023/09/15 08:22:44;;;;;;;10.40;3.60;;;15.80;71.80;;;;;;4947814;28;20047;-74
2023/09/15 08:25:14;;;;;;;7.07;3.60;;;16.00;71.20;;;;;;4943047;28;20039;-74
2023/09/15 08:27:40;;;;;;;5.32;3.08;;;16.20;70.70;;;;;;4971756;28;20412;-74
2023/09/15 08:30:09;;;;;;;6.30;2.90;;;16.40;70.80;;;;;;4963689;28;20155;-74
2023/09/15 08:32:35;;;;;;;7.47;3.28;;;16.60;70.10;;;;;;4962321;28;20434;-74
2023/09/15 08:35:01;;;;;;;5.38;2.63;;;16.90;69.20;;;;;;4972256;28;20054;-74
2023/09/15 08:37:27;;;;;;;6.93;3.03;;;17.10;68.80;;;;;;4969210;28;20490;-74
2023/09/15 08:39:53;;;;;;;5.25;2.78;;;17.30;67.80;;;;;;4946715;28;20058;-75
2023/09/15 08:42:29;;;;;;;6.68;3.22;;;17.50;66.60;;;;;;4983638;28;20035;-74
2023/09/15 08:44:58;;;;;;;5.93;2.65;;;17.80;66.20;;;;;;4973365;28;20043;-74
2023/09/15 08:47:27;;;;;;;6.20;2.58;;;18.00;65.50;;;;;;4969043;28;20116;-74
2023/09/15 08:49:54;;;;;;;5.55;2.40;;;18.20;64.20;;;;;;4962440;28;20081;-74
2023/09/15 08:52:20;;;;;;;5.50;2.58;;;18.40;63.00;;;;;;4973013;28;20046;-74
2023/09/15 08:54:47;;;;;;;6.38;2.55;;;18.60;62.70;;;;;;4962718;28;20149;-74
2023/09/15 08:57:14;;;;;;;5.35;2.10;;;18.70;62.40;;;;;;4967232;28;20043;-74
2023/09/15 08:59:40;;;;;;;6.40;2.53;;;18.90;61.20;;;;;;4967250;28;20054;-74
2023/09/15 09:02:10;;;;;;;6.75;2.95;;;19.00;59.90;;;;;;4968119;28;20042;-74
2023/09/15 09:04:35;;;;;;;5.28;2.35;;;19.10;60.40;;;;;;4978547;28;20478;-74
2023/09/15 09:07:03;;;;;;;7.10;2.50;;;19.20;60.20;;;;;;4978500;28;20053;-74
2023/09/15 09:09:30;;;;;;;5.50;2.35;;;19.40;59.70;;;;;;4975001;28;20047;-71
2023/09/15 09:11:55;;;;;;;7.30;2.90;;;19.50;59.60;;;;;;4959039;28;20053;-70
2023/09/15 09:14:22;;;;;;;6.60;2.30;;;19.70;59.10;;;;;;4967707;28;20050;-73
2023/09/15 09:16:48;;;;;;;5.90;2.08;;;19.90;58.20;;;;;;4965430;28;20098;-73
2023/09/15 09:19:14;;;;;;;3.95;1.70;;;20.10;58.00;;;;;;4958877;28;20039;-73
2023/09/15 09:21:40;;;;;;;9.10;3.05;;;20.30;57.90;;;;;;4927300;28;20057;-73
2023/09/15 09:24:06;;;;;;;4.57;2.00;;;20.40;57.00;;;;;;4958627;28;20053;-73
2023/09/15 09:26:32;;;;;;;5.05;1.98;;;20.50;56.40;;;;;;4962812;28;20038;-72
2023/09/15 09:28:58;;;;;;;3.83;1.90;;;20.70;56.10;;;;;;4945112;29;20171;-73
2023/09/15 09:31:25;;;;;;;6.05;2.08;;;20.80;56.10;;;;;;4969705;28;20042;-73
2023/09/15 09:33:52;;;;;;;4.70;2.33;;;20.90;55.70;;;;;;4952118;28;20039;-73
2023/09/15 09:36:18;;;;;;;4.70;1.88;;;20.90;54.70;;;;;;4952781;28;20042;-73
2023/09/15 09:38:49;;;;;;;5.03;2.20;;;20.90;54.20;;;;;;4952017;28;20127;-73
2023/09/15 09:41:20;;;;;;;4.40;2.15;;;21.00;54.80;;;;;;4953183;28;20394;-73
2023/09/15 09:43:47;;;;;;;6.20;2.45;;;21.10;54.50;;;;;;4969864;28;20042;-73
2023/09/15 09:46:21;;;;;;;5.70;2.08;;;21.10;54.00;;;;;;4953697;28;20046;-73
2023/09/15 09:48:48;;;;;;;4.32;2.03;;;21.20;53.40;;;;;;4952296;28;20050;-73
2023/09/15 09:51:14;;;;;;;3.42;1.90;;;21.20;53.10;;;;;;4969279;28;20046;-73
2023/09/15 09:53:40;;;;;;;7.97;2.58;;;21.30;53.40;;;;;;4951168;28;20055;-72
2023/09/15 09:56:06;;;;;;;6.85;2.42;;;21.40;53.20;;;;;;4936365;28;20046;-73
2023/09/15 09:58:33;;;;;;;3.97;2.17;;;21.40;52.00;;;;;;4968484;28;20046;-72
2023/09/15 10:00:59;;;;;;;6.82;2.30;;;21.40;52.30;;;;;;4952431;28;20047;-72
2023/09/15 10:03:25;;;;;;;6.00;2.30;;;21.40;52.10;;;;;;4950806;28;20034;-72
2023/09/15 10:05:52;;;;;;;4.93;1.85;;;21.50;52.30;;;;;;4949651;28;20451;-72
2023/09/15 10:08:18;;;;;;;7.03;2.05;;;21.60;51.70;;;;;;4934824;28;20046;-73
2023/09/15 10:10:46;;;;;;;5.90;2.28;;;21.70;51.40;;;;;;4951218;28;20168;-73
2023/09/15 10:13:16;;;;;;;4.28;1.83;;;21.70;51.40;;;;;;4951559;28;20042;-73
2023/09/15 10:15:43;;;;;;;5.97;2.58;;;21.70;51.80;;;;;;4951425;28;20162;-73
2023/09/15 10:18:14;;;;;;;5.95;2.03;;;21.70;50.80;;;;;;4951320;28;20379;-73
2023/09/15 10:20:42;;;;;;;6.35;2.40;;;21.70;50.30;;;;;;4950507;28;20474;-74
2023/09/15 10:23:08;;;;;;;6.18;2.33;;;21.60;50.30;;;;;;4951880;28;20039;-73
2023/09/15 10:25:47;;;;;;;4.90;1.90;;;21.50;51.00;;;;;;4934763;28;20515;-73
2023/09/15 10:28:13;;;;;;;5.78;2.10;;;21.50;51.50;;;;;;4951815;28;20498;-74
2023/09/15 10:30:40;;;;;;;5.35;2.05;;;21.50;51.00;;;;;;4969660;28;20394;-73
2023/09/15 10:33:10;;;;;;;5.00;2.50;;;21.50;51.10;;;;;;4950653;28;20047;-73
2023/09/15 10:35:40;;;;;;;6.10;2.13;;;21.50;50.80;;;;;;4951439;28;20433;-74
2023/09/15 10:38:06;;;;;;;5.18;1.92;;;21.50;51.00;;;;;;4951857;28;20650;-73
2023/09/15 10:40:49;;;;;;;5.50;2.63;;;21.50;50.80;;;;;;4935559;28;20062;-74
2023/09/15 10:43:17;;;;;;;5.88;2.67;;;21.40;50.20;;;;;;4951654;28;20031;-74
2023/09/15 10:46:13;;;;;;;7.97;2.63;;;21.30;50.60;;;;;;4968463;28;20137;-73
2023/09/15 10:48:43;;;;;;;7.22;2.55;;;21.20;51.10;;;;;;4935294;28;20399;-74
2023/09/15 10:51:10;;;;;;;6.28;2.63;;;21.20;51.80;;;;;;4951668;28;20042;-74
2023/09/15 10:53:46;;;;;;;4.10;1.95;;;21.20;51.50;;;;;;4950882;28;20109;-73
2023/09/15 10:56:14;;;;;;;5.63;2.40;;;21.20;51.70;;;;;;4967909;28;20452;-73
2023/09/15 10:58:46;;;;;;;5.80;2.35;;;21.20;51.60;;;;;;4950919;28;20081;-74
2023/09/15 11:01:13;;;;;;;6.60;2.78;;;21.30;51.60;;;;;;4951404;28;20042;-73
2023/09/15 11:03:39;;;;;;;9.73;3.53;;;21.30;51.70;;;;;;4951257;28;20038;-74
2023/09/15 11:06:12;;;;;;;6.85;2.60;;;21.30;52.00;;;;;;4950339;28;20075;-72
2023/09/15 11:08:38;;;;;;;4.93;2.47;;;21.40;52.00;;;;;;4966330;28;20541;-72
2023/09/15 11:11:07;;;;;;;6.85;3.10;;;21.40;51.20;;;;;;4934955;28;20043;-72
2023/09/15 11:13:33;;;;;;;9.43;3.00;;;21.40;51.40;;;;;;4950936;28;20097;-72
2023/09/15 11:15:59;;;;;;;6.72;3.33;;;21.40;51.40;;;;;;4935226;28;20931;-73
2023/09/15 11:18:26;;;;;;;6.03;2.72;;;21.40;50.70;;;;;;4934393;28;20077;-72
2023/09/15 11:20:52;;;;;;;7.95;3.05;;;21.40;50.30;;;;;;4950789;28;20070;-73
2023/09/15 11:23:18;;;;;;;6.53;2.45;;;21.40;50.50;;;;;;4918149;28;20065;-73
2023/09/15 11:25:44;;;;;;;5.78;2.50;;;21.40;50.80;;;;;;4951587;28;20058;-72
2023/09/15 11:28:16;;;;;;;3.67;2.17;;;21.40;51.30;;;;;;4950895;28;20043;-73
2023/09/15 11:30:43;;;;;;;5.90;2.67;;;21.40;52.00;;;;;;4950992;28;20482;-74
2023/09/15 11:33:09;;;;;;;7.60;3.03;;;21.50;52.40;;;;;;4950642;28;20066;-74
2023/09/15 11:35:35;;;;;;;6.30;2.80;;;21.50;51.70;;;;;;4950814;28;20061;-74
2023/09/15 11:38:04;;;;;;;5.97;2.75;;;21.60;51.30;;;;;;4950558;28;20069;-73
2023/09/15 11:40:32;;;;;;;6.20;2.63;;;21.60;51.50;;;;;;4934944;28;20390;-73
2023/09/15 11:43:01;;;;;;;6.53;2.88;;;21.60;51.60;;;;;;4950213;28;20074;-73
2023/09/15 11:45:30;;;;;;;8.65;4.13;;;21.70;51.50;;;;;;4938088;28;20447;-73
2023/09/15 11:47:58;;;;;;;7.07;2.80;;;21.70;51.60;;;;;;4958059;28;20051;-73
2023/09/15 11:50:25;;;;;;;8.35;2.58;;;21.70;51.90;;;;;;4962392;28;20038;-73
2023/09/15 11:52:52;;;;;;;8.38;2.80;;;21.70;51.50;;;;;;4962372;28;20162;-73
2023/09/15 11:55:20;;;;;;;5.60;2.47;;;21.80;51.70;;;;;;4956710;28;20039;-73
2023/09/15 11:57:46;;;;;;;8.07;2.35;;;21.80;51.60;;;;;;4951003;28;20066;-73
2023/09/15 12:00:17;;;;;;;4.97;2.45;;;21.90;51.00;;;;;;4950740;28;20113;-73
2023/09/15 12:02:48;;;;;;;6.45;2.78;;;21.80;49.90;;;;;;4950429;28;20039;-73
2023/09/15 12:05:16;;;;;;;5.45;2.63;;;21.80;50.90;;;;;;4950664;28;20133;-73
2023/09/15 12:07:45;;;;;;;5.25;2.70;;;21.80;50.70;;;;;;4935247;28;20042;-73
2023/09/15 12:10:16;;;;;;;5.05;2.60;;;21.80;50.90;;;;;;4945516;28;20446;-73
2023/09/15 12:12:43;;;;;;;5.72;2.53;;;21.70;50.90;;;;;;4942144;28;20134;-73
2023/09/15 12:15:09;;;;;;;6.88;2.75;;;21.70;50.90;;;;;;4934155;28;20046;-73
2023/09/15 12:17:34;;;;;;;6.20;2.65;;;21.70;50.80;;;;;;4949713;28;20070;-73
2023/09/15 12:20:04;;;;;;;6.22;2.60;;;21.60;50.50;;;;;;4949581;28;20400;-73
2023/09/15 12:22:43;;;;;;;5.10;2.20;;;21.60;50.40;;;;;;4949707;28;20058;-73
2023/09/15 12:25:14;;;;;;;5.53;2.72;;;21.60;51.00;;;;;;4950579;28;20043;-73
2023/09/15 12:27:40;;;;;;;5.78;2.80;;;21.50;51.20;;;;;;4949880;28;20441;-74
2023/09/15 12:30:10;;;;;;;5.72;2.70;;;21.50;51.90;;;;;;4950188;28;20117;-73
2023/09/15 12:32:36;;;;;;;5.65;2.60;;;21.60;52.00;;;;;;4955824;28;20108;-74
2023/09/15 12:35:09;;;;;;;4.45;2.47;;;21.50;51.80;;;;;;4962754;28;20401;-75
2023/09/15 12:37:39;;;;;;;6.88;2.97;;;21.60;51.30;;;;;;4972312;28;20065;-74
2023/09/15 12:40:05;;;;;;;9.05;2.42;;;21.60;51.20;;;;;;4940241;28;20058;-75
2023/09/15 12:42:31;;;;;;;5.82;3.13;;;21.60;51.20;;;;;;4946189;29;20527;-74
2023/09/15 12:44:56;;;;;;;6.25;2.90;;;21.60;51.60;;;;;;4936812;28;20190;-74